Time;durP1;ratioP1;P1;durP2;ratioP2;P2;SDS_P1;SDS_P2;PMS_P1;PMS_P2;Temp;Humidity;BMP_temperature;BMP_pressure;BME280_temperature;BME280_humidity;BME280_pressure;Samples;Min_cycle;Max_cycle;Signal;HPM_P1;HPM_P2
2021/11/26 00:00:11;;;;;;;47.92;24.63;;;;;;;3.33;100.00;100019.50;696554;28;1072;-53
2021/11/26 00:00:32;;;;;;;49.50;23.67;;;;;;;3.33;100.00;100022.09;696222;28;2501;-53
2021/11/26 00:00:52;;;;;;;49.57;23.73;;;;;;;3.32;100.00;100017.75;694518;28;4025;-53
2021/11/26 00:01:13;;;;;;;52.20;24.27;;;;;;;3.32;100.00;100016.91;694092;28;1384;-53
2021/11/26 00:01:33;;;;;;;47.77;23.67;;;;;;;3.31;100.00;100010.88;693984;28;4303;-51
2021/11/26 00:01:54;;;;;;;50.10;24.30;;;;;;;3.31;100.00;100012.59;693466;28;1341;-54
2021/11/26 00:02:18;;;;;;;49.07;24.70;;;;;;;3.31;100.00;100015.16;693541;28;1362;-52
2021/11/26 00:02:38;;;;;;;52.88;25.20;;;;;;;3.30;100.00;100008.28;692143;28;1262;-55
2021/11/26 00:02:59;;;;;;;55.05;25.77;;;;;;;3.30;100.00;100008.28;693632;28;1484;-53
2021/11/26 00:03:20;;;;;;;57.40;26.30;;;;;;;3.29;100.00;100009.97;693828;28;1433;-51
2021/11/26 00:03:40;;;;;;;55.50;25.83;;;;;;;3.30;100.00;100019.47;694878;28;1182;-54
2021/11/26 00:04:01;;;;;;;55.08;25.70;;;;;;;3.29;100.00;100009.97;693621;28;3858;-53
2021/11/26 00:04:21;;;;;;;51.08;24.45;;;;;;;3.28;100.00;100009.97;697177;28;4555;-52
2021/11/26 00:04:42;;;;;;;50.97;24.23;;;;;;;3.28;100.00;100010.84;699483;28;1181;-56
2021/11/26 00:05:03;;;;;;;51.47;24.90;;;;;;;3.27;100.00;100009.09;698024;28;3432;-52
2021/11/26 00:05:24;;;;;;;52.08;24.77;;;;;;;3.27;100.00;100009.09;697705;28;1081;-52
2021/11/26 00:05:44;;;;;;;50.50;25.00;;;;;;;3.26;100.00;100007.34;699450;28;3569;-52
2021/11/26 00:06:05;;;;;;;53.78;25.75;;;;;;;3.26;100.00;100001.34;698119;28;1218;-52
2021/11/26 00:06:26;;;;;;;52.43;26.10;;;;;;;3.26;100.00;100004.78;699083;28;1988;-54
2021/11/26 00:06:46;;;;;;;48.22;24.75;;;;;;;3.27;100.00;100003.06;696216;28;1274;-54
2021/11/26 00:07:08;;;;;;;52.13;24.33;;;;;;;3.26;100.00;100007.34;698014;28;1202;-54
2021/11/26 00:07:30;;;;;;;53.15;24.67;;;;;;;3.26;100.00;99997.03;697375;28;4598;-53
2021/11/26 00:07:50;;;;;;;55.95;25.42;;;;;;;3.28;100.00;99999.63;698190;28;3082;-56
2021/11/26 00:08:10;;;;;;;55.20;25.38;;;;;;;3.26;100.00;99994.44;697630;28;3796;-54
2021/11/26 00:08:31;;;;;;;55.67;25.37;;;;;;;3.35;100.00;99999.75;695843;28;1260;-51
2021/11/26 00:08:51;;;;;;;51.50;24.85;;;;;;;3.35;100.00;99993.69;696697;28;1464;-51
2021/11/26 00:09:12;;;;;;;53.70;24.53;;;;;;;3.38;100.00;99997.19;697464;28;1230;-54
2021/11/26 00:09:32;;;;;;;52.90;24.63;;;;;;;3.38;100.00;100002.38;696311;28;4167;-51
2021/11/26 00:09:52;;;;;;;47.57;23.57;;;;;;;3.38;100.00;99998.94;696240;28;1235;-53
2021/11/26 00:10:13;;;;;;;47.57;24.30;;;;;;;3.39;100.00;99998.94;695477;28;1423;-52
2021/11/26 00:10:33;;;;;;;48.63;24.63;;;;;;;3.39;100.00;99996.38;698485;28;4863;-54
2021/11/26 00:10:53;;;;;;;48.00;24.20;;;;;;;3.37;100.00;99994.59;697986;28;1313;-53
2021/11/26 00:11:14;;;;;;;49.25;24.98;;;;;;;3.35;100.00;99996.28;696808;28;3332;-51
2021/11/26 00:11:34;;;;;;;46.63;23.60;;;;;;;3.55;100.00;99993.97;694528;28;1280;-52
2021/11/26 00:11:56;;;;;;;50.28;24.25;;;;;;;3.68;100.00;99992.41;695662;28;1295;-51
2021/11/26 00:12:16;;;;;;;50.08;23.83;;;;;;;3.71;100.00;99993.31;695991;28;1285;-51
2021/11/26 00:12:37;;;;;;;50.78;23.92;;;;;;;3.70;100.00;99995.91;695631;28;1334;-52
2021/11/26 00:13:01;;;;;;;48.53;23.17;;;;;;;3.74;100.00;100001.13;694030;28;1314;-53
2021/11/26 00:13:27;;;;;;;48.80;24.38;;;;;;;3.65;100.00;99990.66;695886;28;4762;-51
2021/11/26 00:13:54;;;;;;;46.75;24.15;;;;;;;3.78;100.00;99989.09;696896;28;974;-51
2021/11/26 00:14:22;;;;;;;50.05;24.80;;;;;;;3.78;100.00;99990.81;696665;28;3296;-54
2021/11/26 00:15:43;;;;;;;47.10;23.27;;;;;;;3.77;100.00;99991.63;695216;28;1054;-52
2021/11/26 00:16:06;;;;;;;50.58;24.35;;;;;;;3.89;100.00;99984.91;695104;28;1807;-52
2021/11/26 00:16:33;;;;;;;49.10;24.25;;;;;;;3.82;99.89;99984.81;695296;28;4921;-51
2021/11/26 00:16:58;;;;;;;49.65;24.00;;;;;;;3.69;100.00;99982.09;698899;28;1142;-51
2021/11/26 00:17:19;;;;;;;49.45;23.27;;;;;;;3.66;100.00;99987.22;698517;28;1355;-53
2021/11/26 00:17:48;;;;;;;47.83;23.27;;;;;;;3.63;100.00;99988.88;698563;28;4396;-56
2021/11/26 00:18:19;;;;;;;50.15;24.13;;;;;;;3.58;100.00;99988.84;697909;28;1418;-52
2021/11/26 00:18:43;;;;;;;47.95;24.83;;;;;;;3.54;100.00;99984.47;698231;28;1457;-53
2021/11/26 00:19:05;;;;;;;47.92;24.33;;;;;;;3.50;100.00;99986.19;698116;28;1131;-53
2021/11/26 00:19:27;;;;;;;50.22;24.70;;;;;;;3.47;100.00;99983.53;697756;28;4346;-51
2021/11/26 00:19:47;;;;;;;54.40;26.00;;;;;;;3.47;100.00;99990.44;698146;28;1174;-51
2021/11/26 00:20:08;;;;;;;53.63;26.30;;;;;;;3.44;100.00;99980.91;698382;28;1253;-51
2021/11/26 00:20:28;;;;;;;53.07;25.30;;;;;;;3.43;100.00;99983.47;697920;28;1082;-52
2021/11/26 00:20:49;;;;;;;57.63;26.10;;;;;;;3.40;100.00;99985.16;698025;28;3251;-53
2021/11/26 00:21:10;;;;;;;55.63;25.87;;;;;;;3.38;100.00;99986.00;697455;28;3289;-51
2021/11/26 00:21:31;;;;;;;55.95;25.75;;;;;;;3.35;100.00;99979.06;699336;28;1090;-53
2021/11/26 00:21:52;;;;;;;55.38;26.05;;;;;;;3.36;100.00;99987.69;697727;28;1366;-55
2021/11/26 00:22:14;;;;;;;54.55;25.73;;;;;;;3.35;100.00;99988.53;697434;28;1234;-51
2021/11/26 00:22:35;;;;;;;55.92;25.52;;;;;;;3.43;100.00;99989.50;697638;28;4617;-51
2021/11/26 00:22:55;;;;;;;54.57;25.57;;;;;;;3.53;100.00;99977.56;699618;28;1178;-51
2021/11/26 00:23:16;;;;;;;54.67;25.38;;;;;;;3.67;100.00;99988.06;698131;28;1162;-52
2021/11/26 00:23:36;;;;;;;54.22;25.17;;;;;;;3.71;100.00;99987.28;697862;28;2160;-53
2021/11/26 00:23:57;;;;;;;55.30;24.90;;;;;;;3.70;100.00;99985.56;699442;28;3240;-52
2021/11/26 00:24:17;;;;;;;53.30;25.08;;;;;;;3.66;100.00;99978.63;698834;28;3659;-52
2021/11/26 00:24:38;;;;;;;55.27;25.43;;;;;;;3.61;100.00;99975.94;697951;28;2878;-51
2021/11/26 00:24:58;;;;;;;53.75;26.02;;;;;;;3.59;100.00;99980.25;698677;28;1375;-53
2021/11/26 00:25:19;;;;;;;53.73;25.50;;;;;;;3.67;100.00;99976.03;698021;28;4436;-54
2021/11/26 00:25:40;;;;;;;52.20;25.08;;;;;;;3.66;100.00;99982.06;698162;28;1214;-51
2021/11/26 00:26:00;;;;;;;48.88;24.67;;;;;;;3.63;100.00;99976.84;697401;28;1174;-52
2021/11/26 00:26:20;;;;;;;50.20;24.43;;;;;;;3.66;100.00;99979.47;699181;28;1438;-52
2021/11/26 00:26:41;;;;;;;50.88;24.83;;;;;;;3.70;100.00;99973.50;697916;28;1971;-52
2021/11/26 00:27:01;;;;;;;50.03;24.70;;;;;;;3.71;100.00;99971.75;698666;28;1201;-53
2021/11/26 00:27:22;;;;;;;53.10;25.37;;;;;;;3.74;100.00;99975.25;698929;28;2175;-52
2021/11/26 00:27:43;;;;;;;51.13;25.23;;;;;;;3.70;100.00;99973.50;698523;28;2825;-51
2021/11/26 00:28:03;;;;;;;50.67;24.97;;;;;;;3.70;100.00;99972.63;698216;28;1135;-52
2021/11/26 00:28:24;;;;;;;50.15;24.45;;;;;;;3.70;100.00;99975.22;696139;28;4441;-52
2021/11/26 00:28:44;;;;;;;49.60;25.35;;;;;;;3.68;100.00;99971.72;698001;28;795;-51
2021/11/26 00:29:06;;;;;;;49.67;24.80;;;;;;;3.64;100.00;99972.53;697536;28;1166;-55
2021/11/26 00:29:26;;;;;;;50.55;24.83;;;;;;;3.62;100.00;99974.25;697197;28;1024;-52
2021/11/26 00:29:46;;;;;;;48.50;24.53;;;;;;;3.58;100.00;99971.59;696866;28;1146;-55
2021/11/26 00:30:08;;;;;;;50.58;24.77;;;;;;;3.54;100.00;99968.97;697581;28;1316;-51
2021/11/26 00:30:28;;;;;;;52.80;25.67;;;;;;;3.54;100.00;99967.25;699402;28;3630;-53
2021/11/26 00:30:50;;;;;;;53.85;25.67;;;;;;;3.61;100.00;99975.94;697948;28;2113;-54
2021/11/26 00:31:10;;;;;;;51.92;26.00;;;;;;;3.57;100.00;99974.16;697140;28;1146;-51
2021/11/26 00:31:31;;;;;;;51.60;25.20;;;;;;;3.54;100.00;99966.38;695097;28;4538;-58
2021/11/26 00:31:52;;;;;;;52.17;25.35;;;;;;;3.57;100.00;99966.41;693764;28;1163;-51
2021/11/26 00:32:12;;;;;;;52.53;24.93;;;;;;;3.69;100.00;99964.00;693161;28;1298;-53
2021/11/26 00:32:35;;;;;;;53.25;25.60;;;;;;;3.83;100.00;99966.72;693876;28;1420;-51
2021/11/26 00:32:55;;;;;;;52.47;25.52;;;;;;;3.85;100.00;99969.34;693522;28;1229;-52
2021/11/26 00:33:16;;;;;;;51.65;25.55;;;;;;;3.83;100.00;99968.47;695080;28;1119;-51
2021/11/26 00:33:36;;;;;;;55.55;26.02;;;;;;;3.77;100.00;99963.19;696309;28;3791;-51
2021/11/26 00:33:57;;;;;;;54.37;25.87;;;;;;;3.70;100.00;99963.16;694932;28;3592;-51
2021/11/26 00:34:17;;;;;;;53.03;25.35;;;;;;;3.67;100.00;99963.13;693884;28;4481;-52
2021/11/26 00:34:38;;;;;;;53.37;25.43;;;;;;;3.63;100.00;99963.03;696635;28;1421;-51
2021/11/26 00:34:58;;;;;;;51.40;26.13;;;;;;;3.58;100.00;99968.16;695161;28;939;-53
2021/11/26 00:35:19;;;;;;;52.33;25.73;;;;;;;3.55;100.00;99966.41;696634;28;1020;-53
2021/11/26 00:35:39;;;;;;;52.08;24.55;;;;;;;3.54;100.00;99968.97;697282;28;1101;-52
2021/11/26 00:35:59;;;;;;;52.77;25.60;;;;;;;3.51;100.00;99967.22;694052;28;1257;-52
2021/11/26 00:36:20;;;;;;;51.28;26.23;;;;;;;3.50;100.00;99962.91;693861;28;1426;-51
2021/11/26 00:36:40;;;;;;;50.23;25.63;;;;;;;3.47;100.00;99965.44;694461;28;1036;-53
2021/11/26 00:37:00;;;;;;;50.15;26.40;;;;;;;3.46;100.00;99968.00;693815;28;3567;-53
2021/11/26 00:37:22;;;;;;;52.17;26.73;;;;;;;3.51;100.00;99962.03;691255;28;4491;-55
2021/11/26 00:37:43;;;;;;;54.67;26.27;;;;;;;3.49;100.00;99956.00;694819;28;1601;-55
2021/11/26 00:38:03;;;;;;;57.28;26.55;;;;;;;3.48;100.00;99958.56;695833;28;1305;-51
2021/11/26 00:38:24;;;;;;;54.00;26.40;;;;;;;3.44;100.00;99965.41;697478;28;988;-51
2021/11/26 00:38:44;;;;;;;54.00;26.02;;;;;;;3.41;100.00;99955.91;697584;28;1361;-51
2021/11/26 00:39:05;;;;;;;53.07;26.20;;;;;;;3.38;100.00;99955.84;696174;28;1048;-52
2021/11/26 00:39:26;;;;;;;55.92;26.30;;;;;;;3.37;100.00;99961.88;699027;28;1064;-51
2021/11/26 00:39:46;;;;;;;54.22;26.30;;;;;;;3.37;100.00;99964.44;699086;28;1434;-55
2021/11/26 00:40:07;;;;;;;52.60;26.03;;;;;;;3.39;100.00;99961.88;698383;28;3613;-52
2021/11/26 00:40:27;;;;;;;50.83;26.33;;;;;;;3.40;100.00;99958.47;694824;28;4801;-52
2021/11/26 00:40:48;;;;;;;53.88;26.83;;;;;;;3.40;100.00;99959.31;696115;28;1311;-52
2021/11/26 00:41:08;;;;;;;58.73;26.80;;;;;;;3.53;100.00;99959.47;695255;28;1245;-51
2021/11/26 00:41:29;;;;;;;54.97;26.25;;;;;;;3.61;100.00;99962.16;696351;28;1086;-51
2021/11/26 00:41:49;;;;;;;51.57;25.93;;;;;;;3.59;100.00;99959.56;695706;28;1354;-52
2021/11/26 00:42:10;;;;;;;51.53;26.25;;;;;;;3.60;100.00;99960.44;694813;28;1202;-53
2021/11/26 00:42:30;;;;;;;52.90;26.27;;;;;;;3.67;100.00;99952.78;699261;28;1238;-53
2021/11/26 00:42:51;;;;;;;52.40;26.73;;;;;;;3.65;100.00;99948.44;698337;28;968;-52
2021/11/26 00:43:12;;;;;;;52.08;26.25;;;;;;;3.62;100.00;99951.00;699684;28;1091;-51
2021/11/26 00:43:32;;;;;;;53.33;26.77;;;;;;;3.64;100.00;99954.44;698123;28;4395;-54
2021/11/26 00:43:53;;;;;;;50.87;26.13;;;;;;;3.63;100.00;99950.13;695741;28;1030;-53
2021/11/26 00:44:13;;;;;;;52.38;26.02;;;;;;;3.57;100.00;99954.38;696618;28;1361;-52
2021/11/26 00:44:33;;;;;;;50.57;25.60;;;;;;;3.54;100.00;99962.06;696488;28;1470;-51
2021/11/26 00:44:54;;;;;;;53.35;26.02;;;;;;;3.66;100.00;99951.03;694944;28;1154;-51
2021/11/26 00:45:16;;;;;;;52.87;25.53;;;;;;;3.73;100.00;99958.00;695047;28;1221;-52
2021/11/26 00:45:36;;;;;;;48.70;25.27;;;;;;;3.70;100.00;99950.22;695021;28;1262;-53
2021/11/26 00:45:57;;;;;;;49.08;25.38;;;;;;;3.67;100.00;99950.19;697994;28;1095;-51
2021/11/26 00:46:18;;;;;;;52.90;26.23;;;;;;;3.65;100.00;99951.03;696380;28;4802;-53
2021/11/26 00:46:38;;;;;;;50.45;26.63;;;;;;;3.65;100.00;99951.88;698742;28;3140;-52
2021/11/26 00:46:59;;;;;;;51.00;26.45;;;;;;;3.66;100.00;99950.19;698761;28;3842;-51
2021/11/26 00:47:20;;;;;;;53.13;26.37;;;;;;;3.63;100.00;99961.34;698352;28;1253;-52
2021/11/26 00:47:42;;;;;;;54.10;26.73;;;;;;;3.60;100.00;99955.25;697047;28;1376;-55
2021/11/26 00:48:03;;;;;;;55.38;26.63;;;;;;;3.56;100.00;99954.38;696128;28;1122;-52
2021/11/26 00:48:23;;;;;;;52.95;26.92;;;;;;;3.53;100.00;99954.31;696775;28;1099;-53
2021/11/26 00:48:44;;;;;;;55.83;27.53;;;;;;;3.50;100.00;99950.00;696948;28;1086;-51
2021/11/26 00:49:04;;;;;;;53.72;26.95;;;;;;;3.47;100.00;99951.66;697468;28;1422;-52
2021/11/26 00:49:25;;;;;;;56.33;27.43;;;;;;;3.45;100.00;99954.22;697124;28;4338;-52
2021/11/26 00:49:45;;;;;;;54.53;26.95;;;;;;;3.44;100.00;99944.72;699065;28;3202;-54
2021/11/26 00:50:07;;;;;;;52.20;26.23;;;;;;;3.46;100.00;99948.22;698204;28;3833;-51
2021/11/26 00:50:28;;;;;;;52.65;26.45;;;;;;;3.48;100.00;99950.81;698662;28;1272;-53
2021/11/26 00:50:49;;;;;;;55.43;26.47;;;;;;;3.47;100.00;99949.06;698176;28;1293;-52
2021/11/26 00:51:10;;;;;;;53.70;26.92;;;;;;;3.46;100.00;99957.66;698704;28;1359;-52
2021/11/26 00:51:31;;;;;;;54.37;26.93;;;;;;;3.46;100.00;99949.91;698529;28;1397;-51
2021/11/26 00:51:51;;;;;;;53.45;26.45;;;;;;;3.44;100.00;99956.78;698603;28;1106;-52
2021/11/26 00:52:11;;;;;;;54.28;26.33;;;;;;;3.43;100.00;99953.31;699482;28;1231;-52
2021/11/26 00:52:32;;;;;;;54.40;26.50;;;;;;;3.41;100.00;99950.72;698151;28;4570;-52
2021/11/26 00:52:53;;;;;;;54.97;26.63;;;;;;;3.39;100.00;99946.38;699033;28;1151;-52
2021/11/26 00:53:13;;;;;;;51.60;26.10;;;;;;;3.37;100.00;99948.09;697630;28;3457;-51
2021/11/26 00:53:33;;;;;;;51.53;25.93;;;;;;;3.37;100.00;99948.09;698327;28;1347;-52
2021/11/26 00:53:54;;;;;;;51.23;26.30;;;;;;;3.49;100.00;99953.41;698370;28;1035;-51
2021/11/26 00:54:14;;;;;;;50.53;26.02;;;;;;;3.49;100.00;99947.38;697488;28;1646;-53
2021/11/26 00:54:35;;;;;;;52.33;26.20;;;;;;;3.51;100.00;99946.53;699641;28;1035;-52
2021/11/26 00:54:55;;;;;;;51.33;25.80;;;;;;;3.57;100.00;99950.91;698784;28;1103;-52
2021/11/26 00:55:15;;;;;;;50.93;25.30;;;;;;;3.57;100.00;99943.16;697180;28;4347;-51
2021/11/26 00:55:36;;;;;;;52.40;26.20;;;;;;;3.56;100.00;99938.88;695599;28;1138;-51
2021/11/26 00:55:56;;;;;;;52.63;26.57;;;;;;;3.54;100.00;99946.56;695260;28;1380;-51
2021/11/26 00:56:17;;;;;;;49.85;25.52;;;;;;;3.51;100.00;99940.50;695788;28;1879;-54
2021/11/26 00:56:37;;;;;;;51.57;25.63;;;;;;;3.52;100.00;99945.69;696517;28;4072;-52
2021/11/26 00:56:57;;;;;;;49.40;25.85;;;;;;;3.51;100.00;99932.75;695641;28;1125;-52
2021/11/26 00:57:18;;;;;;;53.70;26.73;;;;;;;3.50;100.00;99938.78;695943;28;1265;-53
2021/11/26 00:57:39;;;;;;;49.83;25.70;;;;;;;3.50;100.00;99939.66;699505;28;1197;-52
2021/11/26 00:58:00;;;;;;;51.45;26.00;;;;;;;3.49;100.00;99940.50;698853;28;992;-52
2021/11/26 00:58:20;;;;;;;53.35;26.55;;;;;;;3.51;100.00;99935.34;698122;28;4460;-50
2021/11/26 00:58:41;;;;;;;50.73;26.23;;;;;;;3.55;100.00;99934.53;699065;28;1041;-53
2021/11/26 00:59:01;;;;;;;48.85;25.48;;;;;;;3.58;100.00;99932.84;695784;28;1283;-52
2021/11/26 00:59:21;;;;;;;50.53;25.40;;;;;;;3.56;100.00;99933.69;695896;28;1118;-53
2021/11/26 00:59:42;;;;;;;48.83;25.60;;;;;;;3.56;100.00;99933.69;695862;28;3391;-51
2021/11/26 01:00:07;;;;;;;47.67;25.33;;;;;;;3.57;100.00;99938.00;695048;28;1107;-52
2021/11/26 01:00:27;;;;;;;50.08;26.17;;;;;;;3.56;100.00;99928.53;699033;28;1477;-52
2021/11/26 01:00:48;;;;;;;46.00;25.33;;;;;;;3.56;100.00;99931.09;699312;28;1056;-51
2021/11/26 01:01:08;;;;;;;46.00;25.27;;;;;;;3.61;100.00;99928.56;701056;28;1181;-52
2021/11/26 01:01:29;;;;;;;47.28;24.55;;;;;;;3.77;100.00;99925.31;700079;28;4360;-51
2021/11/26 01:01:49;;;;;;;47.17;24.92;;;;;;;3.79;100.00;99930.50;700146;28;1254;-50
2021/11/26 01:02:10;;;;;;;46.30;24.40;;;;;;;3.74;100.00;99928.72;698489;28;1066;-51
2021/11/26 01:02:30;;;;;;;48.63;25.10;;;;;;;3.70;100.00;99931.28;696971;28;1553;-52
2021/11/26 01:02:51;;;;;;;49.97;24.63;;;;;;;3.67;100.00;99924.34;696520;28;3369;-52
2021/11/26 01:03:11;;;;;;;47.00;24.52;;;;;;;3.68;100.00;99931.25;694988;28;3517;-52
2021/11/26 01:03:31;;;;;;;45.57;23.97;;;;;;;3.63;100.00;99919.97;694715;28;1492;-56
2021/11/26 01:03:52;;;;;;;46.70;24.50;;;;;;;3.62;100.00;99920.81;696772;28;1301;-51
2021/11/26 01:04:12;;;;;;;48.10;24.17;;;;;;;3.58;100.00;99925.09;697866;28;1101;-52
2021/11/26 01:04:33;;;;;;;49.43;25.07;;;;;;;3.57;100.00;99919.91;698798;28;4430;-52
2021/11/26 01:04:54;;;;;;;50.30;25.77;;;;;;;3.54;100.00;99914.69;698149;28;1331;-52
2021/11/26 01:05:14;;;;;;;50.50;25.20;;;;;;;3.59;100.00;99907.88;697548;28;1099;-53
2021/11/26 01:05:35;;;;;;;49.75;25.27;;;;;;;3.62;100.00;99915.66;698274;28;1115;-51
2021/11/26 01:05:55;;;;;;;46.27;24.30;;;;;;;3.61;100.00;99913.06;698159;28;1122;-52
2021/11/26 01:06:16;;;;;;;46.03;24.52;;;;;;;3.56;100.00;99913.03;697865;28;3782;-51
2021/11/26 01:06:36;;;;;;;49.03;24.83;;;;;;;3.57;100.00;99912.16;699581;28;2237;-53
2021/11/26 01:06:57;;;;;;;50.13;24.90;;;;;;;3.54;100.00;99914.69;696637;28;1259;-54
2021/11/26 01:07:17;;;;;;;48.85;25.33;;;;;;;3.54;100.00;99910.38;694888;28;4837;-52
2021/11/26 01:07:38;;;;;;;48.53;24.83;;;;;;;3.51;100.00;99905.19;697226;28;1064;-51
2021/11/26 01:07:58;;;;;;;50.45;24.67;;;;;;;3.51;100.00;99909.50;696928;28;1253;-52
2021/11/26 01:08:19;;;;;;;48.33;24.23;;;;;;;3.48;100.00;99909.47;693368;28;1400;-51
2021/11/26 01:08:40;;;;;;;50.33;24.20;;;;;;;3.47;100.00;99907.72;693577;28;1127;-54
2021/11/26 01:09:00;;;;;;;50.08;24.85;;;;;;;3.47;100.00;99911.16;696515;28;1158;-51
2021/11/26 01:09:21;;;;;;;47.90;24.90;;;;;;;3.45;100.00;99919.75;692273;28;3916;-54
2021/11/26 01:09:42;;;;;;;48.92;25.63;;;;;;;3.43;100.00;99916.28;692866;28;1258;-52
2021/11/26 01:10:08;;;;;;;48.13;25.13;;;;;;;3.45;100.00;99906.81;693318;28;1209;-52
2021/11/26 01:10:29;;;;;;;48.08;24.02;;;;;;;3.41;100.00;99909.38;694009;28;4428;-52
2021/11/26 01:10:51;;;;;;;52.67;25.65;;;;;;;3.48;100.00;99909.47;695301;28;1332;-52
2021/11/26 01:11:11;;;;;;;51.92;24.85;;;;;;;3.51;100.00;99910.34;697084;28;1066;-52
2021/11/26 01:11:31;;;;;;;47.60;24.73;;;;;;;3.49;100.00;99911.19;698398;28;1154;-51
2021/11/26 01:11:52;;;;;;;47.10;24.60;;;;;;;3.49;100.00;99906.00;698077;28;1026;-55
2021/11/26 01:12:12;;;;;;;47.88;24.52;;;;;;;3.53;100.00;99911.25;698585;28;1360;-53
2021/11/26 01:12:34;;;;;;;46.87;24.77;;;;;;;3.52;100.00;99913.81;699789;28;3248;-52
2021/11/26 01:12:55;;;;;;;46.83;24.58;;;;;;;3.62;100.00;99905.31;698800;28;1426;-54
2021/11/26 01:13:16;;;;;;;44.28;23.73;;;;;;;3.67;100.00;99911.41;697944;28;4654;-52
2021/11/26 01:13:36;;;;;;;47.28;23.70;;;;;;;3.65;100.00;99907.94;698641;28;1327;-51
2021/11/26 01:13:57;;;;;;;48.60;23.87;;;;;;;3.63;100.00;99909.66;698434;28;1126;-52
2021/11/26 01:14:17;;;;;;;48.30;24.05;;;;;;;3.60;100.00;99906.16;699017;28;1088;-52
2021/11/26 01:14:37;;;;;;;48.70;24.03;;;;;;;3.55;100.00;99906.97;698226;28;1055;-52
2021/11/26 01:14:58;;;;;;;48.33;24.88;;;;;;;3.67;100.00;99903.66;698947;28;1044;-51
2021/11/26 01:15:27;;;;;;;46.53;23.60;;;;;;;3.67;100.00;99907.94;698582;28;1383;-52
2021/11/26 01:15:48;;;;;;;45.75;23.00;;;;;;;3.60;100.00;99906.16;698552;28;3407;-53
2021/11/26 01:16:08;;;;;;;47.67;23.13;;;;;;;3.67;100.00;99903.66;698827;28;1355;-51
2021/11/26 01:16:28;;;;;;;49.67;22.60;;;;;;;3.87;100.00;99903.84;696681;28;4317;-53
2021/11/26 01:16:49;;;;;;;47.70;22.23;;;;;;;3.87;100.00;99897.84;698926;28;1230;-51
2021/11/26 01:17:09;;;;;;;46.15;22.90;;;;;;;3.83;100.00;99907.25;699280;28;1257;-54
2021/11/26 01:17:30;;;;;;;47.90;23.03;;;;;;;3.77;100.00;99906.31;699831;28;1320;-51
2021/11/26 01:17:51;;;;;;;43.72;22.42;;;;;;;3.81;100.00;99902.91;697392;28;1254;-54
2021/11/26 01:18:12;;;;;;;45.10;22.43;;;;;;;3.82;100.00;99902.09;696799;28;1242;-53
2021/11/26 01:18:36;;;;;;;46.33;22.65;;;;;;;3.79;99.71;99904.63;698439;28;1052;-52
2021/11/26 01:18:56;;;;;;;46.65;24.40;;;;;;;3.71;100.00;99907.13;695090;28;3364;-53
2021/11/26 01:19:16;;;;;;;42.70;23.93;;;;;;;3.67;100.00;99901.06;695308;28;4548;-51
2021/11/26 01:19:37;;;;;;;46.45;24.42;;;;;;;3.65;100.00;99902.75;695247;28;1220;-52
2021/11/26 01:19:57;;;;;;;47.10;23.87;;;;;;;3.63;100.00;99903.59;696199;28;1189;-53
2021/11/26 01:20:21;;;;;;;43.92;23.13;;;;;;;3.59;100.00;99902.72;696361;28;916;-53
2021/11/26 01:20:42;;;;;;;47.22;23.58;;;;;;;3.56;100.00;99900.09;697162;28;2700;-51
2021/11/26 01:21:06;;;;;;;48.06;24.12;;;;;;;3.54;100.00;99899.19;695796;28;1055;-52
2021/11/26 01:21:27;;;;;;;52.28;24.92;;;;;;;3.48;100.00;99902.56;696772;28;1240;-54
2021/11/26 01:21:48;;;;;;;47.73;24.03;;;;;;;3.48;100.00;99896.56;697262;28;1052;-52
2021/11/26 01:22:08;;;;;;;46.80;23.60;;;;;;;3.46;100.00;99900.81;698545;28;3245;-52
2021/11/26 01:22:29;;;;;;;47.20;23.03;;;;;;;3.46;100.00;99903.41;697640;28;4434;-52
2021/11/26 01:22:50;;;;;;;47.53;23.83;;;;;;;3.46;100.00;99900.81;698877;28;1136;-53
2021/11/26 01:23:10;;;;;;;50.85;25.20;;;;;;;3.48;100.00;99897.41;697633;28;1280;-51
2021/11/26 01:23:31;;;;;;;49.17;24.83;;;;;;;3.66;100.00;99895.91;697977;28;1297;-53
2021/11/26 01:23:51;;;;;;;50.33;24.05;;;;;;;3.66;100.00;99889.00;697789;28;1075;-51
2021/11/26 01:24:11;;;;;;;53.33;25.57;;;;;;;3.63;100.00;99888.09;696075;28;1606;-55
2021/11/26 01:24:32;;;;;;;50.95;23.92;;;;;;;3.58;100.00;99896.66;696766;28;1153;-51
2021/11/26 01:24:52;;;;;;;50.17;23.80;;;;;;;3.57;100.00;99892.34;697024;28;1110;-52
2021/11/26 01:25:14;;;;;;;47.20;23.33;;;;;;;3.57;100.00;99894.94;696084;28;4802;-51
2021/11/26 01:25:35;;;;;;;47.45;23.35;;;;;;;3.55;100.00;99890.59;694854;28;4879;-54
2021/11/26 01:25:55;;;;;;;47.20;23.65;;;;;;;3.53;100.00;99889.69;696711;28;1381;-53
2021/11/26 01:26:16;;;;;;;50.20;24.57;;;;;;;3.51;100.00;99888.81;697742;28;1284;-54
2021/11/26 01:26:37;;;;;;;49.30;24.15;;;;;;;3.49;100.00;99888.81;698387;28;1923;-53
2021/11/26 01:26:59;;;;;;;46.30;23.63;;;;;;;3.48;100.00;99887.06;699058;28;1114;-52
2021/11/26 01:27:19;;;;;;;45.58;23.58;;;;;;;3.50;100.00;99887.97;698611;28;1099;-51
2021/11/26 01:27:41;;;;;;;44.97;23.40;;;;;;;3.49;100.00;99886.22;699540;28;1147;-51
2021/11/26 01:28:02;;;;;;;48.22;24.10;;;;;;;3.51;100.00;99899.16;696759;28;1226;-52
2021/11/26 01:28:22;;;;;;;49.45;24.33;;;;;;;3.49;100.00;99885.34;694938;28;4336;-51
2021/11/26 01:28:43;;;;;;;46.87;24.30;;;;;;;3.48;100.00;99883.63;697073;28;3277;-52
2021/11/26 01:29:03;;;;;;;47.35;24.25;;;;;;;3.46;100.00;99888.78;699409;28;1094;-55
2021/11/26 01:29:24;;;;;;;49.50;24.30;;;;;;;3.45;100.00;99883.56;698533;28;1083;-53
2021/11/26 01:29:44;;;;;;;47.05;23.77;;;;;;;3.45;100.00;99879.28;699315;28;1059;-52
2021/11/26 01:30:19;;;;;;;54.97;25.83;;;;;;;3.44;100.00;99881.88;698886;28;1102;-53
2021/11/26 01:30:45;;;;;;;53.28;25.70;;;;;;;3.45;100.00;99879.28;697097;28;1072;-52
2021/11/26 01:31:06;;;;;;;52.60;25.80;;;;;;;3.47;100.00;99871.56;696595;28;1044;-51
2021/11/26 01:31:29;;;;;;;47.17;23.03;;;;;;;3.56;100.00;99875.09;698238;28;4339;-52
2021/11/26 01:31:51;;;;;;;44.63;22.23;;;;;;;3.55;100.00;99872.50;698354;28;3384;-51
2021/11/26 01:32:11;;;;;;;43.47;22.63;;;;;;;3.59;100.00;99876.84;699467;28;1205;-53
2021/11/26 01:32:32;;;;;;;44.63;22.67;;;;;;;3.65;100.00;99869.16;699511;28;1296;-52
2021/11/26 01:32:54;;;;;;;43.17;22.70;;;;;;;3.67;100.00;99864.88;699198;28;1041;-52
2021/11/26 01:33:17;;;;;;;41.08;22.13;;;;;;;3.64;100.00;99880.38;698581;28;1012;-52
2021/11/26 01:33:38;;;;;;;45.92;22.25;;;;;;;3.63;100.00;99873.47;697638;28;1026;-53
2021/11/26 01:33:58;;;;;;;43.50;22.60;;;;;;;3.62;100.00;99876.88;697733;28;1115;-54
2021/11/26 01:34:19;;;;;;;42.85;21.77;;;;;;;3.75;100.00;99865.84;695589;28;4479;-52
2021/11/26 01:34:39;;;;;;;40.37;21.53;;;;;;;3.79;100.00;99869.31;698724;28;996;-54
2021/11/26 01:34:59;;;;;;;41.83;21.57;;;;;;;3.74;100.00;99866.69;699134;28;3255;-53
2021/11/26 01:35:20;;;;;;;43.07;21.80;;;;;;;3.70;100.00;99864.06;698070;28;3591;-53
2021/11/26 01:35:42;;;;;;;43.00;21.88;;;;;;;3.68;100.00;99861.47;698705;28;1216;-53
2021/11/26 01:36:03;;;;;;;43.28;21.98;;;;;;;3.65;100.00;99866.56;699129;28;1495;-52
2021/11/26 01:36:24;;;;;;;42.40;22.55;;;;;;;3.62;100.00;99861.38;694876;28;951;-52
2021/11/26 01:36:46;;;;;;;45.20;22.97;;;;;;;3.58;100.00;99864.78;695093;28;1056;-52
2021/11/26 01:37:07;;;;;;;45.53;23.00;;;;;;;3.57;100.00;99869.09;694802;28;1134;-55
2021/11/26 01:37:27;;;;;;;46.42;23.20;;;;;;;3.60;100.00;99859.63;694456;28;4473;-51
2021/11/26 01:37:48;;;;;;;46.03;22.97;;;;;;;3.69;100.00;99870.06;695906;28;1245;-52
2021/11/26 01:38:09;;;;;;;48.13;23.23;;;;;;;3.66;100.00;99863.16;696020;28;3067;-54
2021/11/26 01:38:29;;;;;;;45.72;23.00;;;;;;;3.63;100.00;99857.94;698690;28;1263;-51
2021/11/26 01:38:49;;;;;;;48.97;22.83;;;;;;;3.62;100.00;99861.38;696395;28;1222;-53
2021/11/26 01:39:10;;;;;;;51.58;24.15;;;;;;;3.62;100.00;99866.53;697236;28;1286;-54
2021/11/26 01:39:30;;;;;;;46.27;22.80;;;;;;;3.60;100.00;99862.22;696963;28;1257;-52
2021/11/26 01:39:51;;;;;;;43.63;23.15;;;;;;;3.58;100.00;99857.88;697235;28;1404;-53
2021/11/26 01:40:12;;;;;;;47.70;23.67;;;;;;;3.56;100.00;99858.75;697093;28;1305;-55